createdAt,value
2017-06-06T04:56:09.726Z,12.20
2017-06-06T04:58:36.498Z,14.40
2017-06-06T05:01:03.253Z,13.57
2017-06-06T05:03:30.046Z,17.60
2017-06-06T05:05:56.827Z,15.43
2017-06-06T05:08:23.579Z,12.33
2017-06-06T05:10:50.474Z,13.47
2017-06-06T05:13:17.218Z,10.57
2017-06-06T05:15:43.970Z,14.50
2017-06-06T05:18:10.810Z,16.97
2017-06-06T05:20:37.598Z,12.03
2017-06-06T05:23:04.343Z,11.07
2017-06-06T05:25:31.178Z,12.30
2017-06-06T05:27:57.954Z,11.40
2017-06-06T05:30:24.723Z,17.00
2017-06-06T05:32:51.507Z,13.13
2017-06-06T05:35:18.281Z,13.37
2017-06-06T05:37:45.044Z,14.20
2017-06-06T05:40:11.835Z,10.30
2017-06-06T05:42:38.618Z,12.37
2017-06-06T05:45:05.398Z,11.93
2017-06-06T05:47:32.206Z,11.63
2017-06-06T05:49:58.970Z,13.43
2017-06-06T05:52:25.751Z,12.40
2017-06-06T05:54:52.582Z,12.20
2017-06-06T05:57:19.350Z,10.60
2017-06-06T05:59:46.098Z,11.03
2017-06-06T06:02:12.884Z,12.10
2017-06-06T06:04:39.656Z,9.90
2017-06-06T06:07:06.423Z,12.43
2017-06-06T06:09:33.294Z,10.90
2017-06-06T06:12:00.070Z,10.70
2017-06-06T06:14:26.857Z,9.70
2017-06-06T06:16:53.655Z,8.70
2017-06-06T06:19:20.462Z,7.60
2017-06-06T06:21:47.211Z,11.77
2017-06-06T06:24:14.006Z,7.83
2017-06-06T06:26:40.758Z,7.27
2017-06-06T06:29:07.589Z,9.70
2017-06-06T06:31:34.399Z,11.20
2017-06-06T06:34:01.149Z,6.17
2017-06-06T06:36:27.911Z,6.13
2017-06-06T06:38:54.694Z,6.83
2017-06-06T06:41:21.465Z,7.10
2017-06-06T06:43:48.234Z,5.80
2017-06-06T06:46:15.032Z,5.63
2017-06-06T06:48:41.810Z,6.00
2017-06-06T06:51:08.587Z,6.23
2017-06-06T06:53:35.430Z,4.90
2017-06-06T06:56:02.194Z,5.83
2017-06-06T06:58:28.996Z,5.27
2017-06-06T07:00:55.801Z,6.70
2017-06-06T07:03:22.710Z,5.83
2017-06-06T07:05:49.451Z,7.00
2017-06-06T07:08:16.262Z,7.93
2017-06-06T07:10:43.006Z,6.87
2017-06-06T07:13:09.797Z,6.00
2017-06-06T07:15:36.606Z,4.93
2017-06-06T07:18:03.366Z,6.17
2017-06-06T07:20:30.109Z,6.07
2017-06-06T07:22:56.899Z,20.07
2017-06-06T07:25:23.657Z,6.20
2017-06-06T07:27:50.439Z,4.13
2017-06-06T07:30:17.246Z,6.00
2017-06-06T07:32:44.138Z,5.20
2017-06-06T07:35:10.922Z,6.03
2017-06-06T07:37:37.735Z,5.10
2017-06-06T07:40:04.481Z,4.63
2017-06-06T07:42:31.327Z,4.10
2017-06-06T07:44:58.136Z,5.30
2017-06-06T07:47:24.913Z,5.23
2017-06-06T07:49:51.707Z,4.93
2017-06-06T07:52:18.516Z,5.83
2017-06-06T07:54:45.290Z,4.10
2017-06-06T07:57:12.039Z,6.00
2017-06-06T07:59:38.811Z,4.90
2017-06-06T08:02:05.555Z,5.03
2017-06-06T08:04:32.318Z,4.77
2017-06-06T08:06:59.137Z,5.33
2017-06-06T08:09:25.884Z,4.97
2017-06-06T08:11:52.662Z,4.20
2017-06-06T08:14:19.454Z,6.37
2017-06-06T08:16:46.198Z,5.33
2017-06-06T08:19:12.947Z,4.60
2017-06-06T08:21:39.793Z,6.13
2017-06-06T08:24:06.528Z,4.00
2017-06-06T08:26:33.269Z,3.73
2017-06-06T08:29:00.062Z,4.10
2017-06-06T08:31:26.834Z,4.20
2017-06-06T08:33:53.607Z,4.63
2017-06-06T08:36:20.415Z,5.17
2017-06-06T08:38:47.223Z,6.13
2017-06-06T08:41:13.992Z,4.67
2017-06-06T08:43:40.797Z,5.10
2017-06-06T08:46:07.583Z,5.67
2017-06-06T08:48:34.330Z,5.00
2017-06-06T08:51:01.151Z,4.90
2017-06-06T08:53:27.918Z,4.77
2017-06-06T08:55:54.683Z,5.93
2017-06-06T08:58:21.488Z,4.73
2017-06-06T09:00:48.231Z,4.80
2017-06-06T09:03:15.063Z,6.90
2017-06-06T09:05:41.874Z,5.57
2017-06-06T09:08:08.625Z,5.90
2017-06-06T09:10:35.419Z,5.83
2017-06-06T09:13:02.231Z,5.17
2017-06-06T09:15:29.001Z,5.37
2017-06-06T09:17:55.792Z,4.60
2017-06-06T09:20:22.637Z,4.80
2017-06-06T09:22:49.463Z,4.80
2017-06-06T09:25:16.227Z,5.27
2017-06-06T09:27:43.029Z,4.87
2017-06-06T09:30:09.783Z,4.90
2017-06-06T09:32:36.547Z,4.67
2017-06-06T09:35:03.345Z,6.33
2017-06-06T09:37:30.109Z,5.10
2017-06-06T09:39:56.869Z,5.37
2017-06-06T09:42:23.742Z,5.33
2017-06-06T09:44:50.505Z,4.70
2017-06-06T09:47:17.259Z,4.33
2017-06-06T09:49:44.062Z,4.87
2017-06-06T09:52:10.821Z,5.60
2017-06-06T09:54:37.594Z,4.53
2017-06-06T09:57:04.408Z,5.80
2017-06-06T09:59:31.178Z,5.87
2017-06-06T10:01:57.995Z,4.07
2017-06-06T10:04:24.777Z,5.90
2017-06-06T10:06:51.562Z,5.13
2017-06-06T10:09:18.341Z,10.00
2017-06-06T10:11:45.115Z,5.60
2017-06-06T10:14:11.855Z,5.27
2017-06-06T10:16:38.594Z,4.93
2017-06-06T10:19:05.394Z,4.30
2017-06-06T10:21:32.179Z,4.00
2017-06-06T10:23:58.951Z,4.10
2017-06-06T10:26:25.744Z,5.10
2017-06-06T10:28:52.498Z,5.70
2017-06-06T10:31:19.265Z,5.47
2017-06-06T10:33:46.057Z,10.33
2017-06-06T10:36:12.790Z,4.50
2017-06-06T10:38:39.540Z,7.33
2017-06-06T10:41:06.377Z,4.80
2017-06-06T10:43:33.134Z,5.10
2017-06-06T10:45:59.892Z,5.33
2017-06-06T10:48:26.716Z,6.97
2017-06-06T10:50:53.478Z,8.70
2017-06-06T10:53:20.289Z,6.93
2017-06-06T10:55:47.095Z,5.50
2017-06-06T10:58:13.878Z,5.20
2017-06-06T11:00:40.633Z,5.60
2017-06-06T11:03:07.425Z,5.10
2017-06-06T11:05:34.217Z,5.20
2017-06-06T11:08:00.974Z,7.23
2017-06-06T11:10:28.205Z,6.97
2017-06-06T11:12:54.964Z,6.20
2017-06-06T11:15:21.718Z,7.20
2017-06-06T11:17:48.515Z,5.20
2017-06-06T11:20:15.259Z,6.67
2017-06-06T11:22:42.096Z,7.90
2017-06-06T11:25:08.894Z,6.30
2017-06-06T11:27:35.657Z,5.43
2017-06-06T11:30:02.427Z,12.70
2017-06-06T11:32:29.223Z,6.23
2017-06-06T11:34:55.958Z,9.70
2017-06-06T11:37:22.698Z,5.80
2017-06-06T11:39:49.511Z,6.63
2017-06-06T11:42:16.275Z,6.27
2017-06-06T11:44:43.029Z,5.93
2017-06-06T11:47:09.812Z,5.33
2017-06-06T11:49:36.582Z,5.93
2017-06-06T11:52:03.338Z,8.47
2017-06-06T11:54:30.138Z,7.30
2017-06-06T11:56:56.890Z,6.60
2017-06-06T11:59:23.627Z,6.73
2017-06-06T12:01:50.416Z,7.93
2017-06-06T12:04:17.150Z,6.80
2017-06-06T12:06:43.905Z,11.73
2017-06-06T12:09:10.704Z,7.83
2017-06-06T12:11:37.479Z,7.37
2017-06-06T12:14:04.248Z,6.93
2017-06-06T12:16:31.074Z,12.03
2017-06-06T12:18:57.838Z,6.50
2017-06-06T12:21:24.580Z,9.40
2017-06-06T12:23:51.408Z,7.67
2017-06-06T12:26:18.212Z,7.83
2017-06-06T12:28:45.048Z,9.93
2017-06-06T12:31:11.869Z,9.23
2017-06-06T12:33:38.611Z,7.43
2017-06-06T12:36:05.365Z,8.13
2017-06-06T12:38:32.197Z,8.30
2017-06-06T12:40:58.960Z,8.93
2017-06-06T12:43:25.773Z,7.87
2017-06-06T12:45:52.570Z,10.53
2017-06-06T12:48:19.313Z,9.00
2017-06-06T12:50:46.075Z,9.30
2017-06-06T12:53:12.902Z,8.23
2017-06-06T12:55:39.704Z,7.77
2017-06-06T12:58:06.521Z,8.03
2017-06-06T13:00:33.327Z,8.10
2017-06-06T13:03:00.083Z,7.90
2017-06-06T13:05:26.915Z,8.17
2017-06-06T13:07:53.739Z,7.03
2017-06-06T13:10:20.524Z,8.50
2017-06-06T13:12:47.295Z,11.40
2017-06-06T13:15:14.099Z,8.43
2017-06-06T13:17:40.890Z,8.20
2017-06-06T13:20:07.654Z,7.97
2017-06-06T13:22:34.481Z,8.00
2017-06-06T13:25:01.294Z,6.70
2017-06-06T13:27:28.051Z,12.37
2017-06-06T13:29:54.852Z,8.00
2017-06-06T13:32:21.601Z,6.97
2017-06-06T13:34:48.387Z,7.40
2017-06-06T13:37:15.535Z,7.47
2017-06-06T13:39:42.386Z,6.47
2017-06-06T13:42:09.178Z,6.90
2017-06-06T13:44:35.998Z,7.13
2017-06-06T13:47:02.764Z,9.00
2017-06-06T13:49:29.518Z,8.40
2017-06-06T13:51:56.315Z,8.00
2017-06-06T13:54:23.179Z,7.63
2017-06-06T13:56:49.927Z,6.50
2017-06-06T13:59:16.733Z,8.10
2017-06-06T14:01:43.470Z,7.40
2017-06-06T14:04:10.220Z,7.30
2017-06-06T14:06:37.102Z,8.20
2017-06-06T14:09:03.898Z,7.57
2017-06-06T14:11:30.702Z,7.50
2017-06-06T14:13:57.573Z,6.40
2017-06-06T14:16:24.421Z,8.57
2017-06-06T14:18:51.269Z,6.17
2017-06-06T14:21:18.149Z,6.00
2017-06-06T14:23:44.925Z,5.93
2017-06-06T14:26:11.795Z,6.40
2017-06-06T14:28:38.593Z,5.90
2017-06-06T14:31:05.379Z,4.80
2017-06-06T14:33:32.479Z,4.87
2017-06-06T14:35:59.403Z,4.93
2017-06-06T14:38:26.198Z,6.00
2017-06-06T14:40:52.941Z,5.83
2017-06-06T14:43:19.746Z,4.67
2017-06-06T14:45:46.546Z,9.10
2017-06-06T14:48:13.415Z,4.93
2017-06-06T14:50:40.233Z,4.83
2017-06-06T14:53:07.038Z,4.53
2017-06-06T14:55:33.787Z,4.70
2017-06-06T14:58:00.610Z,4.47
2017-06-06T15:00:27.369Z,4.33
2017-06-06T15:02:54.147Z,4.80
2017-06-06T15:05:21.035Z,9.80
2017-06-06T15:07:48.073Z,5.33
2017-06-06T15:10:14.821Z,5.47
2017-06-06T15:12:41.638Z,3.93
2017-06-06T15:15:08.427Z,4.23
2017-06-06T15:17:35.172Z,7.77
2017-06-06T15:20:02.209Z,7.80
2017-06-06T15:22:29.091Z,14.53
2017-06-06T15:24:55.950Z,7.10
2017-06-06T15:27:22.826Z,5.17
2017-06-06T15:29:49.782Z,6.37
2017-06-06T15:32:17.440Z,8.17
2017-06-06T15:34:44.355Z,8.77
2017-06-06T15:37:11.225Z,5.10
2017-06-06T15:39:38.004Z,7.07
2017-06-06T15:42:04.849Z,11.33
2017-06-06T15:44:31.703Z,6.20
2017-06-06T15:46:58.473Z,4.93
2017-06-06T15:49:25.259Z,4.20
2017-06-06T15:51:52.012Z,5.00
2017-06-06T15:54:18.858Z,5.63
2017-06-06T15:56:45.718Z,4.07
2017-06-06T15:59:12.533Z,5.60
2017-06-06T16:01:39.348Z,5.97
2017-06-06T16:04:06.124Z,5.33
2017-06-06T16:06:32.934Z,3.60
2017-06-06T16:08:59.831Z,3.83
2017-06-06T16:11:26.718Z,2.50
2017-06-06T16:13:53.566Z,6.37
2017-06-06T16:16:20.337Z,2.87
2017-06-06T16:18:47.230Z,2.20
2017-06-06T16:21:13.997Z,6.57
2017-06-06T16:24:24.314Z,1.70
2017-06-06T16:26:51.078Z,2.27
2017-06-06T16:29:17.968Z,2.77
2017-06-06T16:31:44.830Z,1.37
2017-06-06T16:34:11.664Z,1.00
2017-06-06T16:36:38.485Z,1.87
2017-06-06T16:39:05.326Z,1.20
2017-06-06T16:41:32.451Z,0.90
2017-06-06T16:43:59.214Z,1.60
2017-06-06T16:46:26.027Z,0.90
2017-06-06T16:48:52.809Z,1.17
2017-06-06T16:51:19.576Z,0.97
2017-06-06T16:53:46.431Z,1.60
2017-06-06T16:56:13.183Z,1.93
2017-06-06T16:58:39.944Z,1.80
2017-06-06T17:01:06.783Z,2.17
2017-06-06T17:03:33.641Z,1.53
2017-06-06T17:06:00.431Z,1.97
2017-06-06T17:08:27.236Z,3.00
2017-06-06T17:10:54.002Z,2.13
2017-06-06T17:13:20.838Z,1.47
2017-06-06T17:15:47.660Z,1.53
2017-06-06T17:18:14.426Z,3.00
2017-06-06T17:20:41.211Z,1.70
2017-06-06T17:23:08.007Z,1.80
2017-06-06T17:25:34.771Z,2.00
2017-06-06T17:28:01.584Z,2.20
2017-06-06T17:30:28.398Z,3.00
2017-06-06T17:32:55.231Z,1.80
2017-06-06T17:35:22.078Z,2.70
2017-06-06T17:37:48.853Z,2.60
2017-06-06T17:40:15.639Z,5.13
2017-06-06T17:42:42.448Z,4.27
2017-06-06T17:45:09.551Z,5.60
2017-06-06T17:47:36.293Z,5.23
2017-06-06T17:50:03.125Z,3.47
2017-06-06T17:52:29.898Z,3.90
2017-06-06T17:54:56.686Z,3.73
2017-06-06T17:57:23.426Z,4.47
2017-06-06T17:59:50.267Z,3.10
2017-06-06T18:02:17.024Z,6.00
2017-06-06T18:04:43.785Z,3.70
2017-06-06T18:07:10.679Z,4.43
2017-06-06T18:09:37.454Z,4.50
2017-06-06T18:12:04.192Z,6.20
2017-06-06T18:14:30.997Z,4.30
2017-06-06T18:16:57.754Z,3.50
2017-06-06T18:19:24.551Z,4.23
2017-06-06T18:21:51.343Z,3.23
2017-06-06T18:24:18.105Z,4.27
2017-06-06T18:26:44.839Z,5.80
2017-06-06T18:29:11.647Z,3.77
2017-06-06T18:31:38.402Z,3.50
2017-06-06T18:34:05.178Z,3.47
2017-06-06T18:36:31.981Z,3.23
2017-06-06T18:38:58.727Z,2.93
2017-06-06T18:41:25.471Z,4.00
2017-06-06T18:43:52.266Z,3.50
2017-06-06T18:46:19.011Z,3.07
2017-06-06T18:48:45.786Z,3.97
2017-06-06T18:51:12.589Z,4.83
2017-06-06T18:53:39.387Z,4.73
2017-06-06T18:56:06.128Z,3.13
2017-06-06T18:58:32.981Z,4.77
2017-06-06T19:00:59.730Z,4.60
2017-06-06T19:03:26.471Z,4.50
2017-06-06T19:05:53.263Z,4.80
2017-06-06T19:08:21.012Z,6.37
2017-06-06T19:10:47.793Z,3.97
2017-06-06T19:13:14.633Z,5.10
2017-06-06T19:15:41.422Z,6.07
2017-06-06T19:18:08.173Z,5.10
2017-06-06T19:20:35.086Z,6.50
2017-06-06T19:23:01.821Z,5.10
2017-06-06T19:25:28.622Z,8.93
2017-06-06T19:27:55.448Z,4.80
2017-06-06T19:30:22.205Z,4.80
2017-06-06T19:32:48.949Z,6.53
2017-06-06T19:35:15.771Z,7.10
2017-06-06T19:37:42.615Z,9.23
2017-06-06T19:40:09.388Z,4.83
2017-06-06T19:42:36.199Z,5.03
2017-06-06T19:45:02.957Z,5.00
2017-06-06T19:47:29.712Z,6.87
2017-06-06T19:49:56.546Z,5.73
2017-06-06T19:52:23.333Z,6.47
2017-06-06T19:54:50.104Z,5.60
2017-06-06T19:57:16.937Z,6.33
2017-06-06T19:59:43.694Z,5.17
2017-06-06T20:02:10.485Z,5.30
2017-06-06T20:04:37.298Z,6.37
2017-06-06T20:07:04.063Z,5.10
2017-06-06T20:09:30.849Z,5.63
2017-06-06T20:11:57.637Z,5.30
2017-06-06T20:14:24.383Z,7.70
2017-06-06T20:16:51.150Z,7.77
2017-06-06T20:19:17.956Z,6.23
2017-06-06T20:21:44.762Z,8.17
2017-06-06T20:24:11.522Z,6.07
2017-06-06T20:26:38.317Z,7.87
2017-06-06T20:29:05.078Z,9.90
2017-06-06T20:31:31.850Z,8.53
2017-06-06T20:33:58.677Z,7.03
2017-06-06T20:36:25.487Z,8.80
2017-06-06T20:38:52.239Z,9.70
2017-06-06T20:41:19.065Z,7.50
2017-06-06T20:43:45.921Z,9.13
2017-06-06T20:46:12.678Z,8.83
2017-06-06T20:48:39.488Z,10.67
2017-06-06T20:51:06.227Z,13.80
2017-06-06T20:53:32.991Z,7.00
2017-06-06T20:55:59.792Z,6.97
2017-06-06T20:58:26.556Z,6.50
2017-06-06T21:00:53.358Z,6.80
2017-06-06T21:03:20.157Z,7.40
2017-06-06T21:05:46.921Z,8.60
2017-06-06T21:08:13.679Z,6.27
2017-06-06T21:10:40.479Z,7.50
2017-06-06T21:13:07.239Z,8.17
2017-06-06T21:15:33.974Z,8.53
2017-06-06T21:18:00.803Z,6.77
2017-06-06T21:20:27.581Z,6.80
2017-06-06T21:22:54.350Z,11.30
2017-06-06T21:25:21.142Z,5.30
2017-06-06T21:27:47.879Z,4.40
2017-06-06T21:30:14.641Z,3.67
2017-06-06T21:32:41.445Z,4.33
2017-06-06T21:35:08.226Z,7.03
2017-06-06T21:37:34.978Z,3.40
2017-06-06T21:40:02.067Z,2.50
2017-06-06T21:42:28.833Z,3.73
2017-06-06T21:44:55.633Z,4.23
2017-06-06T21:47:22.435Z,3.20
2017-06-06T21:49:49.197Z,3.90
2017-06-06T21:52:15.974Z,5.60
2017-06-06T21:54:42.770Z,4.97
2017-06-06T21:57:09.518Z,4.00
2017-06-06T21:59:36.258Z,2.63
2017-06-06T22:02:03.054Z,6.30
2017-06-06T22:04:29.818Z,2.30
2017-06-06T22:06:56.581Z,7.97
2017-06-06T22:09:23.370Z,3.07
2017-06-06T22:11:50.126Z,5.60
2017-06-06T22:14:16.888Z,8.13
2017-06-06T22:16:43.668Z,2.20
2017-06-06T22:19:10.415Z,2.90
2017-06-06T22:21:37.186Z,8.60
